sensor_id;sensor_type;location;lat;lon;timestamp;P1;durP1;ratioP1;P2;durP2;ratioP2
10823;SDS011;39116;59.332;18.034;2022-10-15T00:01:04;15.32;;;11.27;;
10823;SDS011;39116;59.332;18.034;2022-10-15T00:03:31;15.35;;;11.13;;
10823;SDS011;39116;59.332;18.034;2022-10-15T00:06:03;15.23;;;11.43;;
10823;SDS011;39116;59.332;18.034;2022-10-15T00:08:30;16.35;;;11.35;;
10823;SDS011;39116;59.332;18.034;2022-10-15T00:11:00;16.67;;;11.73;;
10823;SDS011;39116;59.332;18.034;2022-10-15T00:13:27;13.57;;;12.00;;
10823;SDS011;39116;59.332;18.034;2022-10-15T00:15:53;18.75;;;13.68;;
10823;SDS011;39116;59.332;18.034;2022-10-15T00:18:20;15.82;;;12.73;;
10823;SDS011;39116;59.332;18.034;2022-10-15T00:20:46;17.75;;;12.70;;
10823;SDS011;39116;59.332;18.034;2022-10-15T00:23:14;17.90;;;12.35;;
10823;SDS011;39116;59.332;18.034;2022-10-15T00:25:41;17.15;;;12.98;;
10823;SDS011;39116;59.332;18.034;2022-10-15T00:28:07;14.45;;;11.82;;
10823;SDS011;39116;59.332;18.034;2022-10-15T00:30:34;16.33;;;12.15;;
10823;SDS011;39116;59.332;18.034;2022-10-15T00:33:00;17.88;;;13.23;;
10823;SDS011;39116;59.332;18.034;2022-10-15T00:35:27;15.90;;;11.50;;
10823;SDS011;39116;59.332;18.034;2022-10-15T00:37:54;15.05;;;11.43;;
10823;SDS011;39116;59.332;18.034;2022-10-15T00:40:21;20.13;;;13.40;;
10823;SDS011;39116;59.332;18.034;2022-10-15T00:42:48;16.83;;;12.52;;
10823;SDS011;39116;59.332;18.034;2022-10-15T00:45:15;17.27;;;11.73;;
10823;SDS011;39116;59.332;18.034;2022-10-15T00:47:41;16.67;;;11.43;;
10823;SDS011;39116;59.332;18.034;2022-10-15T00:50:10;15.60;;;11.75;;
10823;SDS011;39116;59.332;18.034;2022-10-15T00:52:38;15.35;;;10.88;;
10823;SDS011;39116;59.332;18.034;2022-10-15T00:55:08;15.57;;;10.80;;
10823;SDS011;39116;59.332;18.034;2022-10-15T00:57:37;14.65;;;9.88;;
10823;SDS011;39116;59.332;18.034;2022-10-15T01:00:06;13.90;;;10.02;;
10823;SDS011;39116;59.332;18.034;2022-10-15T01:02:33;16.33;;;9.65;;
10823;SDS011;39116;59.332;18.034;2022-10-15T01:05:00;14.15;;;9.43;;
10823;SDS011;39116;59.332;18.034;2022-10-15T01:07:26;11.90;;;9.57;;
10823;SDS011;39116;59.332;18.034;2022-10-15T01:09:53;15.45;;;9.75;;
10823;SDS011;39116;59.332;18.034;2022-10-15T01:12:22;14.13;;;10.02;;
10823;SDS011;39116;59.332;18.034;2022-10-15T01:14:56;12.95;;;9.55;;
10823;SDS011;39116;59.332;18.034;2022-10-15T01:17:29;10.98;;;9.02;;
10823;SDS011;39116;59.332;18.034;2022-10-15T01:22:42;11.00;;;8.43;;
10823;SDS011;39116;59.332;18.034;2022-10-15T01:25:11;12.00;;;8.95;;
10823;SDS011;39116;59.332;18.034;2022-10-15T01:27:40;10.48;;;8.52;;
10823;SDS011;39116;59.332;18.034;2022-10-15T01:30:20;14.35;;;8.65;;
10823;SDS011;39116;59.332;18.034;2022-10-15T01:32:49;9.95;;;7.80;;
10823;SDS011;39116;59.332;18.034;2022-10-15T01:35:18;12.88;;;8.93;;
10823;SDS011;39116;59.332;18.034;2022-10-15T01:37:48;11.20;;;7.97;;
10823;SDS011;39116;59.332;18.034;2022-10-15T01:40:18;11.80;;;8.43;;
10823;SDS011;39116;59.332;18.034;2022-10-15T01:42:53;12.95;;;8.88;;
10823;SDS011;39116;59.332;18.034;2022-10-15T01:45:24;10.63;;;8.80;;
10823;SDS011;39116;59.332;18.034;2022-10-15T01:47:53;16.30;;;8.82;;
10823;SDS011;39116;59.332;18.034;2022-10-15T01:50:21;9.40;;;8.40;;
10823;SDS011;39116;59.332;18.034;2022-10-15T01:52:49;12.40;;;8.95;;
10823;SDS011;39116;59.332;18.034;2022-10-15T01:55:16;16.55;;;8.55;;
10823;SDS011;39116;59.332;18.034;2022-10-15T01:57:45;9.73;;;7.57;;
10823;SDS011;39116;59.332;18.034;2022-10-15T02:00:13;11.43;;;9.13;;
10823;SDS011;39116;59.332;18.034;2022-10-15T02:02:41;9.82;;;8.20;;
10823;SDS011;39116;59.332;18.034;2022-10-15T02:05:08;13.35;;;8.70;;
10823;SDS011;39116;59.332;18.034;2022-10-15T02:07:37;14.80;;;8.63;;
10823;SDS011;39116;59.332;18.034;2022-10-15T02:10:07;11.77;;;8.93;;
10823;SDS011;39116;59.332;18.034;2022-10-15T02:12:35;11.65;;;7.93;;
10823;SDS011;39116;59.332;18.034;2022-10-15T02:15:05;10.55;;;8.43;;
10823;SDS011;39116;59.332;18.034;2022-10-15T02:17:36;12.00;;;8.30;;
10823;SDS011;39116;59.332;18.034;2022-10-15T02:20:06;9.75;;;7.93;;
10823;SDS011;39116;59.332;18.034;2022-10-15T02:22:37;12.98;;;8.15;;
10823;SDS011;39116;59.332;18.034;2022-10-15T02:25:05;11.68;;;7.93;;
10823;SDS011;39116;59.332;18.034;2022-10-15T02:27:34;12.00;;;8.20;;
10823;SDS011;39116;59.332;18.034;2022-10-15T02:30:02;9.80;;;7.50;;
10823;SDS011;39116;59.332;18.034;2022-10-15T02:32:29;10.27;;;8.35;;
10823;SDS011;39116;59.332;18.034;2022-10-15T02:34:57;11.20;;;7.90;;
10823;SDS011;39116;59.332;18.034;2022-10-15T02:37:26;8.98;;;7.55;;
10823;SDS011;39116;59.332;18.034;2022-10-15T02:39:54;10.60;;;7.53;;
10823;SDS011;39116;59.332;18.034;2022-10-15T02:42:20;11.18;;;7.72;;
10823;SDS011;39116;59.332;18.034;2022-10-15T02:44:47;10.00;;;6.78;;
10823;SDS011;39116;59.332;18.034;2022-10-15T02:47:14;11.00;;;8.13;;
10823;SDS011;39116;59.332;18.034;2022-10-15T02:49:40;10.82;;;8.38;;
10823;SDS011;39116;59.332;18.034;2022-10-15T02:52:07;12.40;;;6.88;;
10823;SDS011;39116;59.332;18.034;2022-10-15T02:54:35;8.60;;;6.80;;
10823;SDS011;39116;59.332;18.034;2022-10-15T02:57:01;9.30;;;7.45;;
10823;SDS011;39116;59.332;18.034;2022-10-15T02:59:28;8.40;;;7.50;;
10823;SDS011;39116;59.332;18.034;2022-10-15T03:01:54;11.45;;;7.88;;
10823;SDS011;39116;59.332;18.034;2022-10-15T03:04:21;11.52;;;7.90;;
10823;SDS011;39116;59.332;18.034;2022-10-15T03:06:47;12.75;;;7.53;;
10823;SDS011;39116;59.332;18.034;2022-10-15T03:09:14;10.52;;;7.40;;
10823;SDS011;39116;59.332;18.034;2022-10-15T03:11:42;11.00;;;7.38;;
10823;SDS011;39116;59.332;18.034;2022-10-15T03:14:09;12.50;;;7.07;;
10823;SDS011;39116;59.332;18.034;2022-10-15T03:16:36;9.07;;;6.75;;
10823;SDS011;39116;59.332;18.034;2022-10-15T03:19:03;6.88;;;6.13;;
10823;SDS011;39116;59.332;18.034;2022-10-15T03:21:29;8.35;;;6.82;;
10823;SDS011;39116;59.332;18.034;2022-10-15T03:23:56;9.73;;;7.07;;
10823;SDS011;39116;59.332;18.034;2022-10-15T03:26:22;9.20;;;7.03;;
10823;SDS011;39116;59.332;18.034;2022-10-15T03:28:50;10.38;;;7.10;;
10823;SDS011;39116;59.332;18.034;2022-10-15T03:31:17;8.73;;;6.78;;
10823;SDS011;39116;59.332;18.034;2022-10-15T03:33:43;10.70;;;6.95;;
10823;SDS011;39116;59.332;18.034;2022-10-15T03:36:10;8.25;;;6.80;;
10823;SDS011;39116;59.332;18.034;2022-10-15T03:38:37;11.63;;;6.25;;
10823;SDS011;39116;59.332;18.034;2022-10-15T03:41:03;7.93;;;6.00;;
10823;SDS011;39116;59.332;18.034;2022-10-15T03:43:30;7.72;;;6.60;;
10823;SDS011;39116;59.332;18.034;2022-10-15T03:46:01;9.52;;;6.57;;
10823;SDS011;39116;59.332;18.034;2022-10-15T03:48:28;9.60;;;6.70;;
10823;SDS011;39116;59.332;18.034;2022-10-15T03:50:54;7.05;;;5.75;;
10823;SDS011;39116;59.332;18.034;2022-10-15T03:53:21;8.20;;;6.05;;
10823;SDS011;39116;59.332;18.034;2022-10-15T03:55:47;8.27;;;6.75;;
10823;SDS011;39116;59.332;18.034;2022-10-15T03:58:14;9.07;;;5.72;;
10823;SDS011;39116;59.332;18.034;2022-10-15T04:00:41;9.15;;;6.20;;
10823;SDS011;39116;59.332;18.034;2022-10-15T04:03:09;9.23;;;6.82;;
10823;SDS011;39116;59.332;18.034;2022-10-15T04:05:36;9.98;;;6.63;;
10823;SDS011;39116;59.332;18.034;2022-10-15T04:08:02;9.20;;;6.25;;
10823;SDS011;39116;59.332;18.034;2022-10-15T04:10:29;8.73;;;6.28;;
10823;SDS011;39116;59.332;18.034;2022-10-15T04:12:55;7.88;;;6.78;;
10823;SDS011;39116;59.332;18.034;2022-10-15T04:15:22;8.77;;;6.57;;
10823;SDS011;39116;59.332;18.034;2022-10-15T04:17:49;9.70;;;7.43;;
10823;SDS011;39116;59.332;18.034;2022-10-15T04:20:20;9.48;;;7.65;;
10823;SDS011;39116;59.332;18.034;2022-10-15T04:22:46;13.60;;;8.45;;
10823;SDS011;39116;59.332;18.034;2022-10-15T04:25:13;10.98;;;8.52;;
10823;SDS011;39116;59.332;18.034;2022-10-15T04:27:40;9.63;;;7.93;;
10823;SDS011;39116;59.332;18.034;2022-10-15T04:30:07;12.88;;;8.40;;
10823;SDS011;39116;59.332;18.034;2022-10-15T04:32:34;12.40;;;8.65;;
10823;SDS011;39116;59.332;18.034;2022-10-15T04:35:00;13.70;;;9.02;;
10823;SDS011;39116;59.332;18.034;2022-10-15T04:37:28;14.23;;;9.55;;
10823;SDS011;39116;59.332;18.034;2022-10-15T04:39:57;13.93;;;10.45;;
10823;SDS011;39116;59.332;18.034;2022-10-15T04:42:24;17.90;;;10.68;;
10823;SDS011;39116;59.332;18.034;2022-10-15T04:44:50;15.65;;;10.80;;
10823;SDS011;39116;59.332;18.034;2022-10-15T04:47:17;17.10;;;11.10;;
10823;SDS011;39116;59.332;18.034;2022-10-15T04:49:43;16.92;;;11.80;;
10823;SDS011;39116;59.332;18.034;2022-10-15T04:52:10;16.05;;;11.68;;
10823;SDS011;39116;59.332;18.034;2022-10-15T04:54:38;16.30;;;12.82;;
10823;SDS011;39116;59.332;18.034;2022-10-15T04:57:05;20.92;;;13.13;;
10823;SDS011;39116;59.332;18.034;2022-10-15T04:59:31;21.80;;;13.60;;
10823;SDS011;39116;59.332;18.034;2022-10-15T05:01:58;20.73;;;14.23;;
10823;SDS011;39116;59.332;18.034;2022-10-15T05:04:24;22.48;;;16.02;;
10823;SDS011;39116;59.332;18.034;2022-10-15T05:06:51;21.75;;;15.95;;
10823;SDS011;39116;59.332;18.034;2022-10-15T05:09:18;23.13;;;16.50;;
10823;SDS011;39116;59.332;18.034;2022-10-15T05:11:46;22.88;;;16.73;;
10823;SDS011;39116;59.332;18.034;2022-10-15T05:14:12;25.05;;;17.85;;
10823;SDS011;39116;59.332;18.034;2022-10-15T05:16:39;27.65;;;18.15;;
10823;SDS011;39116;59.332;18.034;2022-10-15T05:19:06;30.98;;;19.33;;
10823;SDS011;39116;59.332;18.034;2022-10-15T05:21:33;29.90;;;19.27;;
10823;SDS011;39116;59.332;18.034;2022-10-15T05:24:00;31.83;;;19.80;;
10823;SDS011;39116;59.332;18.034;2022-10-15T05:26:28;31.88;;;21.73;;
10823;SDS011;39116;59.332;18.034;2022-10-15T05:28:56;27.67;;;19.20;;
10823;SDS011;39116;59.332;18.034;2022-10-15T05:31:23;34.15;;;21.10;;
10823;SDS011;39116;59.332;18.034;2022-10-15T05:33:51;33.28;;;21.05;;
10823;SDS011;39116;59.332;18.034;2022-10-15T05:36:18;31.13;;;20.35;;
10823;SDS011;39116;59.332;18.034;2022-10-15T05:38:45;32.53;;;21.73;;
10823;SDS011;39116;59.332;18.034;2022-10-15T05:41:12;34.72;;;21.77;;
10823;SDS011;39116;59.332;18.034;2022-10-15T05:43:38;31.45;;;21.55;;
10823;SDS011;39116;59.332;18.034;2022-10-15T05:46:06;31.25;;;20.77;;
10823;SDS011;39116;59.332;18.034;2022-10-15T05:48:33;35.97;;;23.35;;
10823;SDS011;39116;59.332;18.034;2022-10-15T05:51:00;31.23;;;21.52;;
10823;SDS011;39116;59.332;18.034;2022-10-15T05:53:27;29.92;;;21.73;;
10823;SDS011;39116;59.332;18.034;2022-10-15T05:55:53;35.28;;;23.08;;
10823;SDS011;39116;59.332;18.034;2022-10-15T05:58:20;35.13;;;23.33;;
10823;SDS011;39116;59.332;18.034;2022-10-15T06:00:51;36.42;;;22.60;;
10823;SDS011;39116;59.332;18.034;2022-10-15T06:03:19;34.40;;;24.48;;
10823;SDS011;39116;59.332;18.034;2022-10-15T06:05:46;39.63;;;25.25;;
10823;SDS011;39116;59.332;18.034;2022-10-15T06:08:12;36.30;;;23.15;;
10823;SDS011;39116;59.332;18.034;2022-10-15T06:10:39;36.58;;;23.98;;
10823;SDS011;39116;59.332;18.034;2022-10-15T06:13:05;33.63;;;23.75;;
10823;SDS011;39116;59.332;18.034;2022-10-15T06:15:32;39.13;;;24.90;;
10823;SDS011;39116;59.332;18.034;2022-10-15T06:17:59;37.80;;;25.42;;
10823;SDS011;39116;59.332;18.034;2022-10-15T06:20:27;36.28;;;24.05;;
10823;SDS011;39116;59.332;18.034;2022-10-15T06:22:55;39.53;;;24.83;;
10823;SDS011;39116;59.332;18.034;2022-10-15T06:25:22;38.00;;;24.25;;
10823;SDS011;39116;59.332;18.034;2022-10-15T06:27:48;34.42;;;23.73;;
10823;SDS011;39116;59.332;18.034;2022-10-15T06:30:15;39.42;;;26.05;;
10823;SDS011;39116;59.332;18.034;2022-10-15T06:32:45;38.92;;;25.85;;
10823;SDS011;39116;59.332;18.034;2022-10-15T06:35:12;37.33;;;24.42;;
10823;SDS011;39116;59.332;18.034;2022-10-15T06:37:40;41.50;;;25.05;;
10823;SDS011;39116;59.332;18.034;2022-10-15T06:40:07;37.08;;;24.48;;
10823;SDS011;39116;59.332;18.034;2022-10-15T06:42:33;34.42;;;24.10;;
10823;SDS011;39116;59.332;18.034;2022-10-15T06:45:00;35.60;;;23.50;;
10823;SDS011;39116;59.332;18.034;2022-10-15T06:47:26;35.08;;;23.80;;
10823;SDS011;39116;59.332;18.034;2022-10-15T06:49:53;34.22;;;22.70;;
10823;SDS011;39116;59.332;18.034;2022-10-15T06:52:20;32.55;;;22.63;;
10823;SDS011;39116;59.332;18.034;2022-10-15T06:54:49;31.60;;;22.25;;
10823;SDS011;39116;59.332;18.034;2022-10-15T06:57:15;31.15;;;22.25;;
10823;SDS011;39116;59.332;18.034;2022-10-15T06:59:42;30.20;;;20.88;;
10823;SDS011;39116;59.332;18.034;2022-10-15T07:02:09;30.83;;;21.08;;
10823;SDS011;39116;59.332;18.034;2022-10-15T07:04:35;29.63;;;21.42;;
10823;SDS011;39116;59.332;18.034;2022-10-15T07:07:02;28.00;;;20.65;;
10823;SDS011;39116;59.332;18.034;2022-10-15T07:09:28;35.80;;;22.23;;
10823;SDS011;39116;59.332;18.034;2022-10-15T07:11:56;27.05;;;21.30;;
10823;SDS011;39116;59.332;18.034;2022-10-15T07:14:23;28.25;;;19.83;;
10823;SDS011;39116;59.332;18.034;2022-10-15T07:16:49;28.08;;;19.65;;
10823;SDS011;39116;59.332;18.034;2022-10-15T07:19:16;25.30;;;19.13;;
10823;SDS011;39116;59.332;18.034;2022-10-15T07:21:43;28.02;;;20.00;;
10823;SDS011;39116;59.332;18.034;2022-10-15T07:24:09;27.60;;;19.58;;
10823;SDS011;39116;59.332;18.034;2022-10-15T07:26:36;26.23;;;19.48;;
10823;SDS011;39116;59.332;18.034;2022-10-15T07:29:04;28.98;;;20.63;;
10823;SDS011;39116;59.332;18.034;2022-10-15T07:31:30;25.58;;;19.85;;
10823;SDS011;39116;59.332;18.034;2022-10-15T07:33:57;27.77;;;20.42;;
10823;SDS011;39116;59.332;18.034;2022-10-15T07:36:24;31.23;;;21.33;;
10823;SDS011;39116;59.332;18.034;2022-10-15T07:38:50;26.40;;;20.10;;
10823;SDS011;39116;59.332;18.034;2022-10-15T07:41:17;29.63;;;20.63;;
10823;SDS011;39116;59.332;18.034;2022-10-15T07:43:44;31.35;;;21.63;;
10823;SDS011;39116;59.332;18.034;2022-10-15T07:46:12;36.03;;;22.30;;
10823;SDS011;39116;59.332;18.034;2022-10-15T07:48:38;30.25;;;21.75;;
10823;SDS011;39116;59.332;18.034;2022-10-15T07:51:05;29.58;;;21.48;;
10823;SDS011;39116;59.332;18.034;2022-10-15T07:53:32;35.58;;;22.10;;
10823;SDS011;39116;59.332;18.034;2022-10-15T07:55:59;30.75;;;21.42;;
10823;SDS011;39116;59.332;18.034;2022-10-15T07:58:26;30.73;;;19.58;;
10823;SDS011;39116;59.332;18.034;2022-10-15T08:00:54;30.52;;;20.38;;
10823;SDS011;39116;59.332;18.034;2022-10-15T08:03:22;27.20;;;20.05;;
10823;SDS011;39116;59.332;18.034;2022-10-15T08:05:48;25.02;;;19.35;;
10823;SDS011;39116;59.332;18.034;2022-10-15T08:08:17;26.77;;;19.10;;
10823;SDS011;39116;59.332;18.034;2022-10-15T08:10:44;27.38;;;19.70;;
10823;SDS011;39116;59.332;18.034;2022-10-15T08:13:10;26.38;;;20.48;;
10823;SDS011;39116;59.332;18.034;2022-10-15T08:15:37;26.73;;;18.77;;
10823;SDS011;39116;59.332;18.034;2022-10-15T08:18:04;24.95;;;20.20;;
10823;SDS011;39116;59.332;18.034;2022-10-15T08:20:31;23.73;;;19.40;;
10823;SDS011;39116;59.332;18.034;2022-10-15T08:22:58;26.13;;;18.58;;
10823;SDS011;39116;59.332;18.034;2022-10-15T08:25:25;24.92;;;19.27;;
10823;SDS011;39116;59.332;18.034;2022-10-15T08:27:51;26.77;;;18.98;;
10823;SDS011;39116;59.332;18.034;2022-10-15T08:30:18;25.38;;;18.85;;
10823;SDS011;39116;59.332;18.034;2022-10-15T08:32:45;25.95;;;19.35;;
10823;SDS011;39116;59.332;18.034;2022-10-15T08:35:11;25.92;;;19.45;;
10823;SDS011;39116;59.332;18.034;2022-10-15T08:37:39;24.35;;;19.92;;
10823;SDS011;39116;59.332;18.034;2022-10-15T08:40:06;26.42;;;19.38;;
10823;SDS011;39116;59.332;18.034;2022-10-15T08:42:35;24.00;;;18.38;;
10823;SDS011;39116;59.332;18.034;2022-10-15T08:45:03;29.33;;;19.27;;
10823;SDS011;39116;59.332;18.034;2022-10-15T08:47:33;29.98;;;19.45;;
10823;SDS011;39116;59.332;18.034;2022-10-15T08:50:03;27.90;;;19.30;;
10823;SDS011;39116;59.332;18.034;2022-10-15T08:52:35;25.05;;;19.10;;
10823;SDS011;39116;59.332;18.034;2022-10-15T08:55:07;24.65;;;19.92;;
10823;SDS011;39116;59.332;18.034;2022-10-15T08:57:35;30.40;;;20.20;;
10823;SDS011;39116;59.332;18.034;2022-10-15T09:00:04;25.27;;;18.88;;
10823;SDS011;39116;59.332;18.034;2022-10-15T09:02:33;27.77;;;19.40;;
10823;SDS011;39116;59.332;18.034;2022-10-15T09:05:02;25.05;;;18.60;;
10823;SDS011;39116;59.332;18.034;2022-10-15T09:07:32;26.70;;;19.33;;
10823;SDS011;39116;59.332;18.034;2022-10-15T09:10:00;27.45;;;19.08;;
10823;SDS011;39116;59.332;18.034;2022-10-15T09:12:36;26.95;;;20.60;;
10823;SDS011;39116;59.332;18.034;2022-10-15T09:15:09;24.63;;;19.17;;
10823;SDS011;39116;59.332;18.034;2022-10-15T09:17:38;26.52;;;21.13;;
10823;SDS011;39116;59.332;18.034;2022-10-15T09:20:12;27.10;;;19.80;;
10823;SDS011;39116;59.332;18.034;2022-10-15T09:22:40;24.70;;;18.98;;
10823;SDS011;39116;59.332;18.034;2022-10-15T09:25:12;24.42;;;19.05;;
10823;SDS011;39116;59.332;18.034;2022-10-15T09:27:41;23.45;;;17.33;;
10823;SDS011;39116;59.332;18.034;2022-10-15T09:30:12;23.70;;;16.98;;
10823;SDS011;39116;59.332;18.034;2022-10-15T09:32:43;23.27;;;16.88;;
10823;SDS011;39116;59.332;18.034;2022-10-15T09:35:12;23.63;;;17.65;;
10823;SDS011;39116;59.332;18.034;2022-10-15T09:37:43;21.52;;;16.75;;
10823;SDS011;39116;59.332;18.034;2022-10-15T09:40:24;23.00;;;15.50;;
10823;SDS011;39116;59.332;18.034;2022-10-15T09:42:55;20.65;;;15.57;;
10823;SDS011;39116;59.332;18.034;2022-10-15T09:45:22;20.20;;;15.40;;
10823;SDS011;39116;59.332;18.034;2022-10-15T09:47:49;21.73;;;15.60;;
10823;SDS011;39116;59.332;18.034;2022-10-15T09:50:16;19.45;;;15.68;;
10823;SDS011;39116;59.332;18.034;2022-10-15T09:52:45;21.38;;;16.40;;
10823;SDS011;39116;59.332;18.034;2022-10-15T09:55:20;19.90;;;15.68;;
10823;SDS011;39116;59.332;18.034;2022-10-15T09:57:49;21.55;;;16.77;;
10823;SDS011;39116;59.332;18.034;2022-10-15T10:00:19;22.05;;;16.70;;
10823;SDS011;39116;59.332;18.034;2022-10-15T10:02:49;19.83;;;16.42;;
10823;SDS011;39116;59.332;18.034;2022-10-15T10:05:30;21.05;;;16.50;;
10823;SDS011;39116;59.332;18.034;2022-10-15T10:08:06;21.73;;;16.40;;
10823;SDS011;39116;59.332;18.034;2022-10-15T10:10:33;21.65;;;16.25;;
10823;SDS011;39116;59.332;18.034;2022-10-15T10:13:01;20.70;;;17.05;;
10823;SDS011;39116;59.332;18.034;2022-10-15T10:15:31;22.95;;;16.65;;
10823;SDS011;39116;59.332;18.034;2022-10-15T10:17:58;23.05;;;16.48;;
10823;SDS011;39116;59.332;18.034;2022-10-15T10:20:25;19.80;;;16.05;;
10823;SDS011;39116;59.332;18.034;2022-10-15T10:22:52;22.73;;;16.92;;
10823;SDS011;39116;59.332;18.034;2022-10-15T10:25:30;19.88;;;17.77;;
10823;SDS011;39116;59.332;18.034;2022-10-15T10:27:58;23.60;;;16.95;;
10823;SDS011;39116;59.332;18.034;2022-10-15T10:30:32;24.77;;;17.73;;
10823;SDS011;39116;59.332;18.034;2022-10-15T10:33:00;23.95;;;18.48;;
10823;SDS011;39116;59.332;18.034;2022-10-15T10:35:29;25.63;;;19.35;;
10823;SDS011;39116;59.332;18.034;2022-10-15T10:37:58;30.38;;;21.20;;
10823;SDS011;39116;59.332;18.034;2022-10-15T10:40:26;30.08;;;19.67;;
10823;SDS011;39116;59.332;18.034;2022-10-15T10:43:08;25.15;;;19.80;;
10823;SDS011;39116;59.332;18.034;2022-10-15T10:45:36;27.80;;;20.92;;
10823;SDS011;39116;59.332;18.034;2022-10-15T10:48:16;27.33;;;20.80;;
10823;SDS011;39116;59.332;18.034;2022-10-15T10:50:43;28.08;;;21.25;;
10823;SDS011;39116;59.332;18.034;2022-10-15T10:53:13;29.63;;;21.05;;
10823;SDS011;39116;59.332;18.034;2022-10-15T10:55:44;28.48;;;20.83;;
10823;SDS011;39116;59.332;18.034;2022-10-15T10:58:11;27.25;;;19.98;;
10823;SDS011;39116;59.332;18.034;2022-10-15T11:00:42;25.63;;;21.02;;
10823;SDS011;39116;59.332;18.034;2022-10-15T11:03:12;27.88;;;20.10;;
10823;SDS011;39116;59.332;18.034;2022-10-15T11:05:41;33.17;;;20.88;;
10823;SDS011;39116;59.332;18.034;2022-10-15T11:08:09;30.63;;;21.58;;
10823;SDS011;39116;59.332;18.034;2022-10-15T11:10:40;31.83;;;21.58;;
10823;SDS011;39116;59.332;18.034;2022-10-15T11:13:13;29.50;;;22.15;;
10823;SDS011;39116;59.332;18.034;2022-10-15T11:15:47;32.38;;;22.15;;
10823;SDS011;39116;59.332;18.034;2022-10-15T11:18:25;33.78;;;22.08;;
10823;SDS011;39116;59.332;18.034;2022-10-15T11:20:54;27.73;;;22.40;;
10823;SDS011;39116;59.332;18.034;2022-10-15T11:23:27;29.70;;;21.67;;
10823;SDS011;39116;59.332;18.034;2022-10-15T11:25:58;32.00;;;22.38;;
10823;SDS011;39116;59.332;18.034;2022-10-15T11:28:28;32.80;;;22.95;;
10823;SDS011;39116;59.332;18.034;2022-10-15T11:31:02;34.08;;;21.85;;
10823;SDS011;39116;59.332;18.034;2022-10-15T11:33:37;28.88;;;22.30;;
10823;SDS011;39116;59.332;18.034;2022-10-15T11:36:18;28.33;;;22.60;;
10823;SDS011;39116;59.332;18.034;2022-10-15T11:38:49;35.30;;;24.25;;
10823;SDS011;39116;59.332;18.034;2022-10-15T11:41:23;30.38;;;23.95;;
10823;SDS011;39116;59.332;18.034;2022-10-15T11:43:57;34.00;;;25.13;;
10823;SDS011;39116;59.332;18.034;2022-10-15T11:46:31;35.88;;;24.13;;
10823;SDS011;39116;59.332;18.034;2022-10-15T11:49:04;29.27;;;23.25;;
10823;SDS011;39116;59.332;18.034;2022-10-15T11:51:37;32.95;;;24.05;;
10823;SDS011;39116;59.332;18.034;2022-10-15T11:54:15;32.92;;;24.55;;
10823;SDS011;39116;59.332;18.034;2022-10-15T11:56:47;32.88;;;23.95;;
10823;SDS011;39116;59.332;18.034;2022-10-15T11:59:17;33.75;;;22.60;;
10823;SDS011;39116;59.332;18.034;2022-10-15T12:01:48;30.45;;;23.92;;
10823;SDS011;39116;59.332;18.034;2022-10-15T12:04:18;33.35;;;23.20;;
10823;SDS011;39116;59.332;18.034;2022-10-15T12:06:48;31.00;;;24.33;;
10823;SDS011;39116;59.332;18.034;2022-10-15T12:09:17;29.73;;;23.02;;
10823;SDS011;39116;59.332;18.034;2022-10-15T12:11:47;30.80;;;22.92;;
10823;SDS011;39116;59.332;18.034;2022-10-15T12:14:16;29.00;;;22.85;;
10823;SDS011;39116;59.332;18.034;2022-10-15T12:16:48;29.33;;;22.25;;
10823;SDS011;39116;59.332;18.034;2022-10-15T12:19:21;28.25;;;22.08;;
10823;SDS011;39116;59.332;18.034;2022-10-15T12:22:00;26.38;;;22.45;;
10823;SDS011;39116;59.332;18.034;2022-10-15T12:24:50;29.95;;;22.02;;
10823;SDS011;39116;59.332;18.034;2022-10-15T12:27:20;29.60;;;22.05;;
10823;SDS011;39116;59.332;18.034;2022-10-15T12:29:47;28.73;;;23.23;;
10823;SDS011;39116;59.332;18.034;2022-10-15T12:32:19;29.73;;;22.02;;
10823;SDS011;39116;59.332;18.034;2022-10-15T12:34:48;28.38;;;22.90;;
10823;SDS011;39116;59.332;18.034;2022-10-15T12:37:19;32.50;;;24.70;;
10823;SDS011;39116;59.332;18.034;2022-10-15T12:39:49;32.03;;;23.15;;
10823;SDS011;39116;59.332;18.034;2022-10-15T12:42:21;26.00;;;21.83;;
10823;SDS011;39116;59.332;18.034;2022-10-15T12:44:48;26.48;;;21.83;;
10823;SDS011;39116;59.332;18.034;2022-10-15T12:47:15;29.65;;;22.80;;
10823;SDS011;39116;59.332;18.034;2022-10-15T12:50:04;31.90;;;22.90;;
10823;SDS011;39116;59.332;18.034;2022-10-15T12:52:49;28.13;;;23.05;;
10823;SDS011;39116;59.332;18.034;2022-10-15T12:55:21;26.77;;;21.08;;
10823;SDS011;39116;59.332;18.034;2022-10-15T12:57:58;25.00;;;20.85;;
10823;SDS011;39116;59.332;18.034;2022-10-15T13:00:26;26.75;;;20.73;;
10823;SDS011;39116;59.332;18.034;2022-10-15T13:02:53;27.25;;;21.60;;
10823;SDS011;39116;59.332;18.034;2022-10-15T13:05:25;31.65;;;23.73;;
10823;SDS011;39116;59.332;18.034;2022-10-15T13:07:52;23.15;;;19.60;;
10823;SDS011;39116;59.332;18.034;2022-10-15T13:10:20;25.45;;;21.38;;
10823;SDS011;39116;59.332;18.034;2022-10-15T13:12:50;25.55;;;20.90;;
10823;SDS011;39116;59.332;18.034;2022-10-15T13:15:23;24.80;;;21.38;;
10823;SDS011;39116;59.332;18.034;2022-10-15T13:17:51;27.17;;;21.48;;
10823;SDS011;39116;59.332;18.034;2022-10-15T13:20:27;26.08;;;21.15;;
10823;SDS011;39116;59.332;18.034;2022-10-15T13:23:05;24.70;;;20.95;;
10823;SDS011;39116;59.332;18.034;2022-10-15T13:25:32;27.70;;;21.55;;
10823;SDS011;39116;59.332;18.034;2022-10-15T13:27:59;24.58;;;20.98;;
10823;SDS011;39116;59.332;18.034;2022-10-15T13:30:25;27.80;;;22.70;;
10823;SDS011;39116;59.332;18.034;2022-10-15T13:32:52;27.13;;;21.27;;
10823;SDS011;39116;59.332;18.034;2022-10-15T13:35:20;27.35;;;21.92;;
10823;SDS011;39116;59.332;18.034;2022-10-15T13:37:48;27.90;;;22.33;;
10823;SDS011;39116;59.332;18.034;2022-10-15T13:40:16;24.23;;;20.67;;
10823;SDS011;39116;59.332;18.034;2022-10-15T13:42:56;26.00;;;20.52;;
10823;SDS011;39116;59.332;18.034;2022-10-15T13:45:23;28.42;;;20.95;;
10823;SDS011;39116;59.332;18.034;2022-10-15T13:47:50;23.33;;;19.77;;
10823;SDS011;39116;59.332;18.034;2022-10-15T13:50:18;23.25;;;19.95;;
10823;SDS011;39116;59.332;18.034;2022-10-15T13:52:45;23.65;;;19.75;;
10823;SDS011;39116;59.332;18.034;2022-10-15T13:55:18;27.15;;;20.60;;
10823;SDS011;39116;59.332;18.034;2022-10-15T13:57:45;23.25;;;20.27;;
10823;SDS011;39116;59.332;18.034;2022-10-15T14:00:18;25.23;;;19.70;;
10823;SDS011;39116;59.332;18.034;2022-10-15T14:02:45;22.92;;;19.63;;
10823;SDS011;39116;59.332;18.034;2022-10-15T14:05:14;26.27;;;19.92;;
10823;SDS011;39116;59.332;18.034;2022-10-15T14:07:41;26.70;;;21.55;;
10823;SDS011;39116;59.332;18.034;2022-10-15T14:10:07;26.90;;;21.48;;
10823;SDS011;39116;59.332;18.034;2022-10-15T14:12:36;24.92;;;20.65;;
10823;SDS011;39116;59.332;18.034;2022-10-15T14:17:44;27.67;;;21.75;;
10823;SDS011;39116;59.332;18.034;2022-10-15T14:20:15;28.30;;;22.90;;
10823;SDS011;39116;59.332;18.034;2022-10-15T14:22:47;30.70;;;22.73;;
10823;SDS011;39116;59.332;18.034;2022-10-15T14:25:14;27.63;;;21.83;;
10823;SDS011;39116;59.332;18.034;2022-10-15T14:27:46;29.25;;;22.23;;